createdAt,value
2022-08-11T00:01:37.965Z,101120.53
2022-08-11T00:03:46.076Z,101128.16
2022-08-11T00:05:52.768Z,101129.47
2022-08-11T00:07:57.775Z,101127.94
2022-08-11T00:10:01.020Z,101125.56
2022-08-11T00:12:04.872Z,101123.63
2022-08-11T00:14:16.198Z,101120.88
2022-08-11T00:16:22.113Z,101122.56
2022-08-11T00:18:25.299Z,101124.50
2022-08-11T00:20:32.171Z,101124.03
2022-08-11T00:22:36.732Z,101115.66
2022-08-11T00:24:53.508Z,101121.03
2022-08-11T00:26:58.162Z,101120.91
2022-08-11T00:29:11.069Z,101126.72
2022-08-11T00:31:24.308Z,101125.72
2022-08-11T00:33:44.458Z,101122.81
2022-08-11T00:35:51.317Z,101117.19
2022-08-11T00:38:01.237Z,101122.66
2022-08-11T00:40:05.136Z,101113.69
2022-08-11T00:42:16.003Z,101118.81
2022-08-11T00:44:33.874Z,101127.09
2022-08-11T00:46:46.570Z,101125.31
2022-08-11T00:49:01.790Z,101118.53
2022-08-11T00:51:16.769Z,101122.41
2022-08-11T00:53:32.061Z,101115.00
2022-08-11T00:56:18.372Z,101120.84
2022-08-11T00:58:56.410Z,101124.34
2022-08-11T01:01:23.329Z,101125.44
2022-08-11T01:03:34.085Z,101129.03
2022-08-11T01:05:47.523Z,101126.25
2022-08-11T01:08:10.442Z,101126.44
2022-08-11T01:10:32.144Z,101117.16
2022-08-11T01:12:45.756Z,101112.28
2022-08-11T01:15:21.703Z,101116.88
2022-08-11T01:17:58.607Z,101119.19
2022-08-11T01:20:46.181Z,101113.63
2022-08-11T01:23:22.689Z,101121.97
2022-08-11T01:25:57.315Z,101115.00
2022-08-11T01:28:42.108Z,101120.16
2022-08-11T01:31:03.111Z,101120.53
2022-08-11T01:33:39.380Z,101120.25
2022-08-11T01:36:00.609Z,101118.84
2022-08-11T01:38:28.910Z,101126.19
2022-08-11T01:41:03.710Z,101122.34
2022-08-11T01:43:38.321Z,101130.06
2022-08-11T01:45:44.238Z,101124.16
2022-08-11T01:48:02.029Z,101124.44
2022-08-11T01:50:11.318Z,101120.44
2022-08-11T01:52:30.299Z,101119.66
2022-08-11T01:54:43.851Z,101125.31
2022-08-11T01:56:53.909Z,101126.34
2022-08-11T01:59:04.967Z,101135.50
2022-08-11T02:01:31.208Z,101132.94
2022-08-11T02:03:38.108Z,101135.09
2022-08-11T02:06:01.196Z,101131.75
2022-08-11T02:08:11.646Z,101137.28
2022-08-11T02:10:41.178Z,101140.94
2022-08-11T02:12:56.215Z,101136.81
2022-08-11T02:15:07.166Z,101136.13
2022-08-11T02:17:16.235Z,101133.63
2022-08-11T02:19:49.264Z,101130.19
2022-08-11T02:22:13.513Z,101134.84
2022-08-11T02:24:21.745Z,101135.72
2022-08-11T02:26:26.785Z,101128.50
2022-08-11T02:28:40.210Z,101134.59
2022-08-11T02:32:05.091Z,101135.16
2022-08-11T02:33:44.849Z,101138.22
2022-08-11T02:35:51.478Z,101134.94
2022-08-11T02:38:06.008Z,101133.84
2022-08-11T02:40:20.828Z,101127.63
2022-08-11T02:42:35.125Z,101126.06
2022-08-11T02:44:43.126Z,101128.75
2022-08-11T02:46:52.875Z,101128.44
2022-08-11T02:49:19.119Z,101129.47
2022-08-11T02:51:29.028Z,101132.38
2022-08-11T02:53:38.037Z,101125.69
2022-08-11T02:55:57.368Z,101127.75
2022-08-11T02:58:11.012Z,101125.28
2022-08-11T03:00:16.184Z,101129.75
2022-08-11T03:02:31.583Z,101125.47
2022-08-11T03:04:45.002Z,101138.81
2022-08-11T03:06:51.316Z,101132.09
2022-08-11T03:08:57.531Z,101130.03
2022-08-11T03:11:33.852Z,101143.19
2022-08-11T03:13:58.605Z,101138.63
2022-08-11T03:16:37.569Z,101136.91
2022-08-11T03:18:47.010Z,101143.28
2022-08-11T03:20:57.522Z,101142.41
2022-08-11T03:23:19.635Z,101131.91
2022-08-11T03:25:31.644Z,101135.56
2022-08-11T03:27:44.077Z,101139.69
2022-08-11T03:30:02.986Z,101134.88
2022-08-11T03:32:11.111Z,101136.44
2022-08-11T03:34:16.750Z,101131.19
2022-08-11T03:37:15.669Z,101140.22
2022-08-11T03:39:11.158Z,101141.34
2022-08-11T03:42:01.914Z,101138.66
2022-08-11T03:44:15.528Z,101142.47
2022-08-11T03:46:27.416Z,101145.22
2022-08-11T03:48:42.008Z,101144.19
2022-08-11T03:51:02.091Z,101137.28
2022-08-11T03:53:13.646Z,101141.25
2022-08-11T03:55:24.974Z,101134.53
2022-08-11T03:58:09.961Z,101139.34
2022-08-11T04:00:21.018Z,101145.53
2022-08-11T04:02:39.601Z,101142.78
2022-08-11T04:05:25.410Z,101138.50
2022-08-11T04:08:22.204Z,101147.03
2022-08-11T04:10:41.826Z,101149.53
2022-08-11T04:12:59.597Z,101143.59
2022-08-11T04:15:31.830Z,101149.75
2022-08-11T04:18:03.341Z,101140.75
2022-08-11T04:20:20.517Z,101145.66
2022-08-11T04:22:50.986Z,101145.81
2022-08-11T04:25:23.224Z,101148.75
2022-08-11T04:27:43.147Z,101143.50
2022-08-11T04:30:01.907Z,101143.41
2022-08-11T04:32:17.845Z,101137.84
2022-08-11T04:35:08.093Z,101142.72
2022-08-11T04:37:31.602Z,101145.56
2022-08-11T04:39:44.823Z,101145.16
2022-08-11T04:42:31.937Z,101138.78
2022-08-11T04:44:59.897Z,101143.34
2022-08-11T04:48:03.854Z,101143.41
2022-08-11T04:50:41.541Z,101149.63
2022-08-11T04:53:34.137Z,101152.91
2022-08-11T04:56:20.529Z,101151.97
2022-08-11T04:58:47.299Z,101151.19
2022-08-11T05:01:18.707Z,101146.72
2022-08-11T05:03:41.089Z,101151.38
2022-08-11T05:06:17.857Z,101148.81
2022-08-11T05:08:48.642Z,101142.47
2022-08-11T05:11:18.438Z,101146.94
2022-08-11T05:13:45.934Z,101152.06
2022-08-11T05:19:04.562Z,101143.59
2022-08-11T05:21:44.636Z,101130.25
2022-08-11T05:24:12.547Z,101139.69
2022-08-11T05:26:47.815Z,101130.47
2022-08-11T05:29:19.687Z,101128.56
2022-08-11T05:31:43.956Z,101129.50
2022-08-11T05:34:06.697Z,101129.47
2022-08-11T05:36:30.937Z,101130.34
2022-08-11T05:38:54.113Z,101130.41
2022-08-11T05:41:17.090Z,101127.50
2022-08-11T05:43:37.901Z,101127.81
2022-08-11T05:46:20.123Z,101132.56
2022-08-11T05:48:40.895Z,101132.16
2022-08-11T05:51:03.132Z,101130.88
2022-08-11T05:53:45.840Z,101128.00
2022-08-11T05:58:42.646Z,101123.50
2022-08-11T06:00:47.450Z,101126.50
2022-08-11T06:02:55.323Z,101127.31
2022-08-11T06:05:02.313Z,101124.16
2022-08-11T06:07:09.279Z,101128.94
2022-08-11T06:09:14.380Z,101123.31
2022-08-11T06:11:18.890Z,101128.88
2022-08-11T06:13:46.439Z,101121.19
2022-08-11T06:15:51.969Z,101121.44
2022-08-11T06:17:56.151Z,101118.81
2022-08-11T06:20:04.209Z,101112.53
2022-08-11T06:22:12.921Z,101117.94
2022-08-11T06:24:16.529Z,101112.66
2022-08-11T06:26:20.458Z,101120.28
2022-08-11T06:28:30.579Z,101114.34
2022-08-11T06:30:40.444Z,101110.50
2022-08-11T06:32:45.663Z,101111.16
2022-08-11T06:35:13.925Z,101116.59
2022-08-11T06:37:22.210Z,101105.69
2022-08-11T06:39:30.208Z,101099.84
2022-08-11T06:41:42.090Z,101104.13
2022-08-11T06:43:55.598Z,101108.78
2022-08-11T06:46:03.249Z,101102.84
2022-08-11T06:48:11.279Z,101096.56
2022-08-11T06:50:35.355Z,101102.75
2022-08-11T06:52:40.255Z,101095.00
2022-08-11T06:54:45.870Z,101095.09
2022-08-11T06:57:28.825Z,101097.22
2022-08-11T06:59:46.829Z,101103.47
2022-08-11T07:01:59.758Z,101093.38
2022-08-11T07:04:07.093Z,101094.38
2022-08-11T07:06:34.436Z,101102.44
2022-08-11T07:09:25.701Z,101106.44
2022-08-11T07:12:20.005Z,101096.81
2022-08-11T07:14:44.329Z,101095.91
2022-08-11T07:16:49.613Z,101095.41
2022-08-11T07:19:16.604Z,101097.47
2022-08-11T07:22:00.791Z,101090.94
2022-08-11T07:24:34.253Z,101090.88
2022-08-11T07:27:08.956Z,101092.78
2022-08-11T07:29:16.576Z,101087.78
2022-08-11T07:31:25.603Z,101085.75
2022-08-11T07:34:07.401Z,101085.81
2022-08-11T07:35:59.106Z,101081.75
2022-08-11T07:38:06.981Z,101081.78
2022-08-11T07:40:12.503Z,101086.34
2022-08-11T07:42:17.691Z,101088.00
2022-08-11T07:44:33.938Z,101093.94
2022-08-11T07:47:01.134Z,101085.50
2022-08-11T07:49:22.661Z,101084.97
2022-08-11T07:51:45.088Z,101086.59
2022-08-11T07:54:03.061Z,101090.59
2022-08-11T07:56:21.785Z,101086.47
2022-08-11T07:58:58.894Z,101087.09
2022-08-11T08:01:23.529Z,101085.84
2022-08-11T08:03:54.514Z,101080.66
2022-08-11T08:06:36.368Z,101083.34
2022-08-11T08:08:58.943Z,101080.72
2022-08-11T08:11:27.532Z,101075.16
2022-08-11T08:13:48.883Z,101078.53
2022-08-11T08:18:39.148Z,101083.78
2022-08-11T08:20:47.030Z,101087.38
2022-08-11T08:22:57.017Z,101083.75
2022-08-11T08:25:01.873Z,101081.91
2022-08-11T08:27:05.049Z,101085.84
2022-08-11T08:29:26.152Z,101089.97
2022-08-11T08:31:29.276Z,101089.59
2022-08-11T08:33:33.217Z,101088.00
2022-08-11T08:35:37.886Z,101085.84
2022-08-11T08:37:59.813Z,101075.28
2022-08-11T08:40:04.476Z,101083.97
2022-08-11T08:42:11.689Z,101091.84
2022-08-11T08:46:44.042Z,101091.53
2022-08-11T08:48:48.525Z,101093.63
2022-08-11T08:51:21.802Z,101091.72
2022-08-11T08:53:29.157Z,101087.31
2022-08-11T08:55:34.031Z,101096.28
2022-08-11T08:57:39.508Z,101085.56
2022-08-11T08:59:49.314Z,101086.66
2022-08-11T09:01:59.028Z,101085.44
2022-08-11T09:04:10.598Z,101083.13
2022-08-11T09:06:18.213Z,101085.88
2022-08-11T09:08:21.791Z,101085.41
2022-08-11T09:10:25.601Z,101078.25
2022-08-11T09:12:35.785Z,101077.19
2022-08-11T09:15:03.437Z,101084.50
2022-08-11T09:17:06.433Z,101072.13
2022-08-11T09:19:09.944Z,101070.63
2022-08-11T09:21:45.400Z,101075.16
2022-08-11T09:24:07.734Z,101070.22
2022-08-11T09:26:35.547Z,101077.19
2022-08-11T09:28:40.160Z,101072.53
2022-08-11T09:30:43.981Z,101070.81
2022-08-11T09:32:46.917Z,101071.41
2022-08-11T09:34:51.996Z,101069.78
2022-08-11T09:37:13.463Z,101068.28
2022-08-11T09:39:56.828Z,101068.09
2022-08-11T09:42:03.375Z,101067.00
2022-08-11T09:44:26.979Z,101063.56
2022-08-11T09:46:31.103Z,101066.22
2022-08-11T09:48:37.604Z,101064.22
2022-08-11T09:50:41.047Z,101052.38
2022-08-11T09:53:09.967Z,101053.53
2022-08-11T09:55:11.968Z,101051.50
2022-08-11T09:57:32.297Z,101051.97
2022-08-11T09:59:36.634Z,101043.13
2022-08-11T10:01:42.945Z,101042.72
2022-08-11T10:03:45.982Z,101042.53
2022-08-11T10:06:17.464Z,101033.78
2022-08-11T10:08:21.868Z,101048.56
2022-08-11T10:10:25.768Z,101048.31
2022-08-11T10:12:30.648Z,101048.66
2022-08-11T10:14:51.714Z,101049.25
2022-08-11T10:16:56.364Z,101043.91
2022-08-11T10:19:01.191Z,101032.19
2022-08-11T10:24:00.228Z,101036.22
2022-08-11T10:26:40.814Z,101029.97
2022-08-11T10:29:02.424Z,101025.06
2022-08-11T10:31:24.802Z,101024.69
2022-08-11T10:33:59.353Z,101025.09
2022-08-11T10:36:03.004Z,101024.41
2022-08-11T10:38:09.745Z,101028.25
2022-08-11T10:40:16.711Z,101028.47
2022-08-11T10:42:55.378Z,101025.44
2022-08-11T10:45:01.914Z,101028.22
2022-08-11T10:47:23.635Z,101027.91
2022-08-11T10:49:28.543Z,101025.97
2022-08-11T10:51:53.678Z,101025.63
2022-08-11T10:54:14.892Z,101023.69
2022-08-11T10:56:35.972Z,101016.53
2022-08-11T10:58:49.310Z,101009.19
2022-08-11T11:00:56.892Z,101004.75
2022-08-11T11:03:22.209Z,101012.22
2022-08-11T11:05:30.395Z,100993.78
2022-08-11T11:07:44.200Z,100991.75
2022-08-11T11:09:50.716Z,101003.16
2022-08-11T11:12:13.534Z,100997.88
2022-08-11T11:14:35.771Z,100995.63
2022-08-11T11:17:07.222Z,100989.09
2022-08-11T11:19:11.280Z,100985.97
2022-08-11T11:21:25.517Z,100980.66
2022-08-11T11:23:35.709Z,100978.53
2022-08-11T11:26:07.439Z,100981.53
2022-08-11T11:28:20.693Z,100985.38
2022-08-11T11:30:25.178Z,100983.97
2022-08-11T11:32:34.211Z,100981.28
2022-08-11T11:35:05.938Z,100977.09
2022-08-11T11:37:12.504Z,100973.84
2022-08-11T11:39:19.133Z,100973.50
2022-08-11T11:41:28.175Z,100969.28
2022-08-11T11:43:31.945Z,100977.38
2022-08-11T11:45:35.042Z,100968.72
2022-08-11T11:47:38.924Z,100967.50
2022-08-11T11:49:44.060Z,100966.88
2022-08-11T11:51:49.986Z,100960.41
2022-08-11T11:53:55.234Z,100952.16
2022-08-11T11:55:59.210Z,100954.25
2022-08-11T11:58:22.242Z,100953.53
2022-08-11T12:00:51.515Z,100955.03
2022-08-11T12:02:54.904Z,100952.00
2022-08-11T12:04:58.176Z,100940.13
2022-08-11T12:07:15.170Z,100934.16
2022-08-11T12:09:23.226Z,100944.78
2022-08-11T12:11:46.183Z,100939.50
2022-08-11T12:13:51.373Z,100935.88
2022-08-11T12:16:31.170Z,100920.72
2022-08-11T12:18:44.455Z,100929.97
2022-08-11T12:20:47.518Z,100923.78
2022-08-11T12:23:07.783Z,100923.56
2022-08-11T12:25:29.597Z,100927.97
2022-08-11T12:27:32.823Z,100924.69
2022-08-11T12:29:36.050Z,100923.38
2022-08-11T12:31:40.692Z,100917.31
2022-08-11T12:37:23.582Z,100904.38
2022-08-11T12:40:16.811Z,100898.19
2022-08-11T12:42:25.113Z,100899.47
2022-08-11T12:44:49.743Z,100890.66
2022-08-11T12:46:52.829Z,100893.84
2022-08-11T12:49:15.395Z,100900.91
2022-08-11T12:52:11.768Z,100905.59
2022-08-11T12:54:10.566Z,100895.94
2022-08-11T12:56:30.987Z,100893.69
2022-08-11T12:58:36.152Z,100891.94
2022-08-11T13:00:56.766Z,100888.81
2022-08-11T13:03:17.489Z,100879.22
2022-08-11T13:05:21.060Z,100876.81
2022-08-11T13:07:24.783Z,100865.19
2022-08-11T13:09:27.754Z,100871.59
2022-08-11T13:11:57.059Z,100863.03
2022-08-11T13:14:02.596Z,100869.59
2022-08-11T13:16:08.460Z,100866.13
2022-08-11T13:18:12.272Z,100874.81
2022-08-11T13:20:20.096Z,100874.66
2022-08-11T13:22:24.391Z,100865.28
2022-08-11T13:24:28.571Z,100847.97
2022-08-11T13:26:47.725Z,100867.25
2022-08-11T13:28:53.652Z,100864.84
2022-08-11T13:31:12.446Z,100853.03
2022-08-11T13:33:17.095Z,100863.75
2022-08-11T13:35:21.000Z,100862.63
2022-08-11T13:38:19.726Z,100857.94
2022-08-11T13:39:47.942Z,100858.41
2022-08-11T13:41:51.222Z,100853.66
2022-08-11T13:43:54.629Z,100847.66
2022-08-11T13:46:13.279Z,100852.06
2022-08-11T13:48:17.425Z,100845.97
2022-08-11T13:50:22.112Z,100837.50
2022-08-11T13:52:26.397Z,100847.84
2022-08-11T13:54:31.941Z,100834.81
2022-08-11T13:56:39.709Z,100830.41
2022-08-11T13:58:43.606Z,100826.63
2022-08-11T14:00:55.716Z,100831.50
2022-08-11T14:03:00.720Z,100837.22
2022-08-11T14:05:07.121Z,100820.91
2022-08-11T14:07:12.085Z,100826.56
2022-08-11T14:09:17.414Z,100821.81
2022-08-11T14:12:22.333Z,100835.25
2022-08-11T14:14:01.462Z,100833.69
2022-08-11T14:16:11.129Z,100836.66
2022-08-11T14:18:19.905Z,100839.19
2022-08-11T14:20:39.374Z,100830.72
2022-08-11T14:22:43.606Z,100828.47
2022-08-11T14:24:49.447Z,100826.94
2022-08-11T14:26:52.831Z,100820.69
2022-08-11T14:28:59.128Z,100822.75
2022-08-11T14:31:05.373Z,100825.53
2022-08-11T14:33:17.363Z,100817.09
2022-08-11T14:35:26.491Z,100815.94
2022-08-11T14:37:29.780Z,100820.84
2022-08-11T14:39:36.230Z,100823.94
2022-08-11T14:42:10.633Z,100822.22
2022-08-11T14:44:33.851Z,100830.03
2022-08-11T14:46:55.150Z,100830.75
2022-08-11T14:48:58.144Z,100816.47
2022-08-11T14:51:05.527Z,100817.56
2022-08-11T14:53:10.528Z,100823.47
2022-08-11T14:55:35.354Z,100816.84
2022-08-11T14:57:55.393Z,100805.97
2022-08-11T15:00:02.068Z,100815.25
2022-08-11T15:02:23.709Z,100807.00
2022-08-11T15:04:35.277Z,100812.78
2022-08-11T15:06:43.037Z,100807.63
2022-08-11T15:08:58.039Z,100816.38
2022-08-11T15:11:01.197Z,100805.59
2022-08-11T15:13:03.670Z,100808.78
2022-08-11T15:15:25.592Z,100805.81
2022-08-11T15:17:43.176Z,100790.38
2022-08-11T15:20:01.412Z,100801.38
2022-08-11T15:22:27.851Z,100792.06
2022-08-11T15:24:31.389Z,100788.16
2022-08-11T15:26:55.478Z,100784.63
2022-08-11T15:29:18.522Z,100788.91
2022-08-11T15:31:52.439Z,100785.59
2022-08-11T15:34:14.405Z,100785.34
2022-08-11T15:36:39.127Z,100789.19
2022-08-11T15:38:48.997Z,100780.72
2022-08-11T15:41:16.929Z,100781.84
2022-08-11T15:43:40.025Z,100776.97
2022-08-11T15:45:50.152Z,100777.47
2022-08-11T15:48:05.341Z,100772.34
2022-08-11T15:50:13.834Z,100771.41
2022-08-11T15:52:22.853Z,100766.69
2022-08-11T15:54:31.048Z,100766.34
2022-08-11T15:56:34.389Z,100772.16
2022-08-11T15:59:10.739Z,100762.94
2022-08-11T16:01:40.575Z,100772.84
2022-08-11T16:04:08.929Z,100760.69
2022-08-11T16:06:13.827Z,100769.53
2022-08-11T16:08:26.021Z,100755.84
2022-08-11T16:10:39.419Z,100760.16
2022-08-11T16:13:18.173Z,100762.50
2022-08-11T16:15:38.786Z,100756.94
2022-08-11T16:17:44.796Z,100753.06
2022-08-11T16:19:50.289Z,100758.19
2022-08-11T16:21:54.635Z,100747.59
2022-08-11T16:23:59.099Z,100751.06
2022-08-11T16:27:07.218Z,100748.78
2022-08-11T16:28:31.567Z,100747.28
2022-08-11T16:30:36.306Z,100743.88
2022-08-11T16:32:41.793Z,100749.31
2022-08-11T16:35:03.577Z,100749.69
2022-08-11T16:37:24.278Z,100741.56
2022-08-11T16:39:28.457Z,100747.47
2022-08-11T16:41:52.854Z,100745.44
2022-08-11T16:44:13.511Z,100746.91
2022-08-11T16:46:32.631Z,100754.50
2022-08-11T16:48:38.761Z,100753.63
2022-08-11T16:50:42.608Z,100754.31
2022-08-11T16:52:45.629Z,100743.66
2022-08-11T16:54:49.045Z,100744.34
2022-08-11T16:56:54.927Z,100751.41
2022-08-11T16:59:17.838Z,100752.44
2022-08-11T17:01:22.748Z,100742.63
2022-08-11T17:03:43.354Z,100740.13
2022-08-11T17:06:09.166Z,100740.47
2022-08-11T17:08:29.673Z,100738.97
2022-08-11T17:10:56.462Z,100736.06
2022-08-11T17:13:10.019Z,100739.50
2022-08-11T17:15:36.154Z,100747.69
2022-08-11T17:17:40.842Z,100735.94
2022-08-11T17:20:40.621Z,100728.94
2022-08-11T17:22:31.072Z,100731.19
2022-08-11T17:24:36.008Z,100732.41
2022-08-11T17:26:57.073Z,100726.63
2022-08-11T17:29:03.067Z,100725.97
2022-08-11T17:31:27.654Z,100726.81
2022-08-11T17:33:48.338Z,100725.84
2022-08-11T17:35:51.541Z,100725.31
2022-08-11T17:37:55.203Z,100722.94
2022-08-11T17:39:59.483Z,100714.47
2022-08-11T17:42:22.325Z,100720.41
2022-08-11T17:44:44.649Z,100725.84
2022-08-11T17:47:06.369Z,100723.13
2022-08-11T17:49:11.345Z,100725.53
2022-08-11T17:51:37.035Z,100721.50
2022-08-11T17:54:02.124Z,100727.44
2022-08-11T17:56:42.082Z,100723.22
2022-08-11T17:59:03.341Z,100720.00
2022-08-11T18:01:09.068Z,100720.34
2022-08-11T18:03:32.488Z,100719.53
2022-08-11T18:05:37.721Z,100728.00
2022-08-11T18:07:58.910Z,100731.09
2022-08-11T18:10:20.906Z,100732.59
2022-08-11T18:12:41.440Z,100729.03
2022-08-11T18:15:05.214Z,100736.38
2022-08-11T18:17:28.004Z,100733.13
2022-08-11T18:19:49.319Z,100730.09
2022-08-11T18:22:14.992Z,100740.97
2022-08-11T18:24:36.683Z,100735.19
2022-08-11T18:26:57.631Z,100741.97
2022-08-11T18:29:18.875Z,100745.06
2022-08-11T18:31:40.091Z,100742.69
2022-08-11T18:34:07.359Z,100746.06
2022-08-11T18:36:31.461Z,100745.03
2022-08-11T18:38:52.128Z,100743.72
2022-08-11T18:41:13.165Z,100744.38
2022-08-11T18:43:38.846Z,100746.03
2022-08-11T18:46:06.747Z,100753.66
2022-08-11T18:48:33.279Z,100742.28
2022-08-11T18:51:30.083Z,100747.53
2022-08-11T18:53:38.717Z,100751.94
2022-08-11T18:56:00.247Z,100757.19
2022-08-11T18:58:24.012Z,100752.75
2022-08-11T19:00:45.113Z,100754.13
2022-08-11T19:03:07.136Z,100751.41
2022-08-11T19:06:35.247Z,100754.59
2022-08-11T19:08:12.108Z,100763.72
2022-08-11T19:10:33.135Z,100763.13
2022-08-11T19:12:59.058Z,100760.41
2022-08-11T19:15:20.284Z,100769.06
2022-08-11T19:17:44.465Z,100767.84
2022-08-11T19:20:06.617Z,100771.91
2022-08-11T19:22:27.752Z,100779.81
2022-08-11T19:24:49.933Z,100784.72
2022-08-11T19:27:11.957Z,100781.97
2022-08-11T19:30:07.590Z,100780.06
2022-08-11T19:32:14.346Z,100783.22
2022-08-11T19:34:36.510Z,100790.16
2022-08-11T19:36:57.168Z,100782.81
2022-08-11T19:39:18.614Z,100791.88
2022-08-11T19:41:56.530Z,100786.41
2022-08-11T19:44:18.540Z,100794.47
2022-08-11T19:46:41.190Z,100790.53
2022-08-11T19:49:02.439Z,100794.00
2022-08-11T19:51:26.757Z,100789.53
2022-08-11T19:53:47.499Z,100792.13
2022-08-11T19:56:09.916Z,100792.06
2022-08-11T19:58:32.220Z,100791.09
2022-08-11T20:00:52.881Z,100789.38
2022-08-11T20:03:13.602Z,100792.06
2022-08-11T20:05:33.925Z,100792.22
2022-08-11T20:07:54.757Z,100804.53
2022-08-11T20:10:18.605Z,100799.75
2022-08-11T20:12:40.132Z,100796.66
2022-08-11T20:15:02.357Z,100791.81
2022-08-11T20:17:23.203Z,100796.47
2022-08-11T20:19:55.182Z,100795.41
2022-08-11T20:22:17.558Z,100796.06
2022-08-11T20:24:38.908Z,100798.06
2022-08-11T20:26:59.640Z,100804.38
2022-08-11T20:29:20.996Z,100803.44
2022-08-11T20:31:43.044Z,100802.34
2022-08-11T20:34:05.609Z,100808.47
2022-08-11T20:36:27.105Z,100805.63
2022-08-11T20:38:49.122Z,100804.53
2022-08-11T20:41:11.181Z,100806.97
2022-08-11T20:44:08.421Z,100809.97
2022-08-11T20:46:14.793Z,100808.56
2022-08-11T20:48:37.828Z,100812.84
2022-08-11T20:50:59.536Z,100815.06
2022-08-11T20:53:20.067Z,100813.66
2022-08-11T20:55:52.315Z,100814.53
2022-08-11T21:00:55.073Z,100818.31
2022-08-11T21:03:16.293Z,100813.50
2022-08-11T21:06:10.437Z,100816.09
2022-08-11T21:08:31.820Z,100815.22
2022-08-11T21:10:55.637Z,100817.00
2022-08-11T21:13:24.310Z,100822.75
2022-08-11T21:16:01.587Z,100824.00
2022-08-11T21:18:27.448Z,100818.88
2022-08-11T21:20:50.668Z,100822.38
2022-08-11T21:23:23.297Z,100817.84
2022-08-11T21:25:46.050Z,100812.28
2022-08-11T21:28:08.675Z,100814.75
2022-08-11T21:30:29.768Z,100815.03
2022-08-11T21:32:50.797Z,100813.84
2022-08-11T21:35:11.959Z,100812.34
2022-08-11T21:37:34.002Z,100809.78
2022-08-11T21:39:56.477Z,100813.34
2022-08-11T21:42:17.031Z,100809.06
2022-08-11T21:44:37.962Z,100809.31
2022-08-11T21:46:58.653Z,100812.53
2022-08-11T21:49:19.794Z,100811.75
2022-08-11T21:51:44.373Z,100817.50
2022-08-11T21:54:05.296Z,100810.31
2022-08-11T21:56:29.169Z,100815.38
2022-08-11T21:58:49.986Z,100821.09
2022-08-11T22:01:10.740Z,100805.66
2022-08-11T22:03:31.346Z,100810.91
2022-08-11T22:06:04.512Z,100809.34
2022-08-11T22:08:25.240Z,100807.75
2022-08-11T22:10:46.175Z,100814.38
2022-08-11T22:13:08.251Z,100809.91
2022-08-11T22:15:29.587Z,100822.16
2022-08-11T22:17:53.635Z,100820.44
2022-08-11T22:20:16.370Z,100815.94
2022-08-11T22:22:52.418Z,100815.19
2022-08-11T22:25:16.303Z,100812.78
2022-08-11T22:27:39.459Z,100817.81
2022-08-11T22:30:01.343Z,100821.84
2022-08-11T22:32:22.240Z,100818.28
2022-08-11T22:34:52.705Z,100820.16
2022-08-11T22:37:27.224Z,100815.88
2022-08-11T22:40:01.717Z,100813.34
2022-08-11T22:42:33.288Z,100817.72
2022-08-11T22:44:54.631Z,100815.91
2022-08-11T22:47:19.783Z,100812.63
2022-08-11T22:49:42.588Z,100810.41
2022-08-11T22:52:19.635Z,100814.41
2022-08-11T22:54:40.664Z,100812.75
2022-08-11T22:57:01.561Z,100811.53
2022-08-11T22:59:22.449Z,100821.91
2022-08-11T23:01:54.753Z,100817.88
2022-08-11T23:04:19.430Z,100817.00
2022-08-11T23:06:40.440Z,100816.03
2022-08-11T23:09:01.850Z,100823.72
2022-08-11T23:11:24.912Z,100820.53
2022-08-11T23:13:45.791Z,100821.03
2022-08-11T23:16:06.519Z,100822.38
2022-08-11T23:18:27.556Z,100822.88
2022-08-11T23:20:55.099Z,100809.53
2022-08-11T23:23:17.261Z,100820.06
2022-08-11T23:25:37.644Z,100814.91
2022-08-11T23:27:58.289Z,100813.94
2022-08-11T23:30:20.195Z,100812.97
2022-08-11T23:32:42.218Z,100815.34
2022-08-11T23:35:40.165Z,100808.16
2022-08-11T23:37:48.555Z,100807.53
2022-08-11T23:40:09.327Z,100811.78
2022-08-11T23:42:30.129Z,100816.66
2022-08-11T23:44:56.113Z,100808.13
2022-08-11T23:47:18.886Z,100810.28
2022-08-11T23:49:39.621Z,100802.84
2022-08-11T23:52:00.494Z,100808.81
2022-08-11T23:54:23.198Z,100805.88
2022-08-11T23:56:43.639Z,100795.66
2022-08-11T23:59:04.567Z,100802.63
